Time;durP1;ratioP1;P1;durP2;ratioP2;P2;SDS_P1;SDS_P2;PMS_P1;PMS_P2;Temp;Humidity;BMP_temperature;BMP_pressure;BME280_temperature;BME280_humidity;BME280_pressure;Samples;Min_cycle;Max_cycle;Signal;HPM_P1;HPM_P2
2024/01/13 00:04:25;;;;;;;15.57;10.10;;;;;;;;;;10371658;28;20201;-69
2024/01/13 00:09:25;;;;;;;17.97;10.17;;;;;;;;;;10373283;28;20236;-69
2024/01/13 00:14:25;;;;;;;17.50;11.57;;;;;;;;;;10372979;28;20190;-68
2024/01/13 00:19:25;;;;;;;16.30;10.13;;;;;;;;;;10373047;28;20650;-68
2024/01/13 00:24:26;;;;;;;14.93;9.60;;;;;;;;;;10370867;28;20236;-69
2024/01/13 00:29:26;;;;;;;18.27;9.33;;;;;;;;;;10372460;28;20617;-68
2024/01/13 00:34:26;;;;;;;15.73;10.43;;;;;;;;;;10372499;28;20193;-69
2024/01/13 00:39:26;;;;;;;17.10;9.77;;;;;;;;;;10371613;28;20682;-68
2024/01/13 00:44:26;;;;;;;14.53;9.10;;;;;;;;;;10370433;28;20193;-68
2024/01/13 00:49:27;;;;;;;20.20;10.63;;;;;;;;;;10371314;28;20221;-69
2024/01/13 00:54:27;;;;;;;15.10;8.37;;;;;;;;;;10371116;28;20205;-69
2024/01/13 00:59:27;;;;;;;17.17;10.20;;;;;;;;;;10371140;28;20271;-69
2024/01/13 01:04:27;;;;;;;15.30;9.67;;;;;;;;;;10369215;28;20436;-69
2024/01/13 01:09:27;;;;;;;15.77;10.17;;;;;;;;;;10370760;28;20298;-69
2024/01/13 01:14:28;;;;;;;15.00;9.57;;;;;;;;;;10370539;28;20185;-68
2024/01/13 01:19:28;;;;;;;17.30;10.13;;;;;;;;;;10368857;28;20205;-69
2024/01/13 01:24:29;;;;;;;15.90;10.23;;;;;;;;;;10367930;28;20186;-68
2024/01/13 01:29:29;;;;;;;15.60;8.73;;;;;;;;;;10369940;28;20221;-69
2024/01/13 01:34:29;;;;;;;10.90;7.73;;;;;;;;;;10369811;28;20440;-69
2024/01/13 01:39:29;;;;;;;12.30;7.50;;;;;;;;;;10368008;28;20189;-68
2024/01/13 01:44:29;;;;;;;16.50;7.53;;;;;;;;;;10369450;28;20194;-68
2024/01/13 01:49:30;;;;;;;12.37;6.27;;;;;;;;;;10369478;28;20209;-68
2024/01/13 01:54:30;;;;;;;10.97;6.23;;;;;;;;;;10368514;28;20230;-68
2024/01/13 01:59:30;;;;;;;8.53;4.90;;;;;;;;;;10367242;28;20440;-69
2024/01/13 02:04:31;;;;;;;7.37;5.07;;;;;;;;;;10368550;28;20239;-69
2024/01/13 02:09:32;;;;;;;8.37;5.40;;;;;;;;;;10368555;28;20237;-68
2024/01/13 02:14:32;;;;;;;7.20;5.33;;;;;;;;;;10368646;28;20185;-69
2024/01/13 02:19:32;;;;;;;9.87;5.30;;;;;;;;;;10366712;28;20195;-68
2024/01/13 02:24:33;;;;;;;8.10;5.68;;;;;;;;;;10368573;28;20201;-69
2024/01/13 02:29:33;;;;;;;10.40;5.43;;;;;;;;;;10368275;28;20220;-69
2024/01/13 02:34:33;;;;;;;10.07;5.87;;;;;;;;;;10368194;28;20198;-69
2024/01/13 02:39:33;;;;;;;11.80;6.50;;;;;;;;;;10366537;28;20201;-68
2024/01/13 02:44:34;;;;;;;10.37;5.93;;;;;;;;;;10367584;28;20503;-68
2024/01/13 02:49:34;;;;;;;8.93;5.37;;;;;;;;;;10367956;28;20232;-68
2024/01/13 02:54:34;;;;;;;10.70;5.73;;;;;;;;;;10365880;28;20228;-68
2024/01/13 02:59:34;;;;;;;8.97;5.50;;;;;;;;;;10367894;28;20251;-69
2024/01/13 03:04:34;;;;;;;8.90;5.00;;;;;;;;;;10370098;28;20608;-68
2024/01/13 03:09:35;;;;;;;7.60;5.07;;;;;;;;;;10375267;28;20314;-69
2024/01/13 03:14:35;;;;;;;6.70;4.70;;;;;;;;;;10373931;28;20205;-68
2024/01/13 03:19:35;;;;;;;6.37;4.50;;;;;;;;;;10374990;28;20541;-69
2024/01/13 03:24:35;;;;;;;6.70;4.87;;;;;;;;;;10375217;28;20221;-69
2024/01/13 03:29:35;;;;;;;8.03;5.53;;;;;;;;;;10374692;28;20271;-68
2024/01/13 03:34:35;;;;;;;6.80;5.03;;;;;;;;;;10373045;28;20569;-68
2024/01/13 03:39:36;;;;;;;7.83;5.13;;;;;;;;;;10374451;28;20196;-68
2024/01/13 03:44:36;;;;;;;7.60;5.90;;;;;;;;;;10374006;28;20221;-68
2024/01/13 03:49:36;;;;;;;6.47;5.07;;;;;;;;;;10374022;28;20213;-68
2024/01/13 03:54:36;;;;;;;8.50;5.57;;;;;;;;;;10372206;28;20300;-68
2024/01/13 03:59:36;;;;;;;8.63;5.80;;;;;;;;;;10373683;28;20546;-69
2024/01/13 04:04:37;;;;;;;8.93;5.77;;;;;;;;;;10373052;28;20217;-69
2024/01/13 04:09:39;;;;;;;8.03;5.90;;;;;;;;;;10369484;28;20245;-69
2024/01/13 04:14:39;;;;;;;7.37;5.03;;;;;;;;;;10370348;28;20240;-69
2024/01/13 04:19:39;;;;;;;7.13;5.30;;;;;;;;;;10373055;28;20213;-69
2024/01/13 04:24:39;;;;;;;7.87;5.33;;;;;;;;;;10372525;28;20253;-68
2024/01/13 04:29:39;;;;;;;5.30;4.67;;;;;;;;;;10369693;28;20209;-68
2024/01/13 04:34:40;;;;;;;5.83;4.63;;;;;;;;;;10372203;28;20221;-68
2024/01/13 04:39:40;;;;;;;5.83;4.17;;;;;;;;;;10372091;28;20729;-69
2024/01/13 04:44:40;;;;;;;5.90;4.00;;;;;;;;;;10371702;28;20217;-68
2024/01/13 04:49:40;;;;;;;6.40;3.97;;;;;;;;;;10368038;28;20205;-68
2024/01/13 04:54:40;;;;;;;6.60;4.00;;;;;;;;;;10371332;28;20205;-69
2024/01/13 04:59:41;;;;;;;6.50;4.10;;;;;;;;;;10370556;28;20660;-69
2024/01/13 05:04:41;;;;;;;5.57;4.00;;;;;;;;;;10371139;28;20760;-68
2024/01/13 05:09:41;;;;;;;5.63;4.20;;;;;;;;;;10290056;28;20637;-69
2024/01/13 05:14:41;;;;;;;4.83;4.13;;;;;;;;;;10289925;28;20211;-69
2024/01/13 05:19:41;;;;;;;5.87;4.37;;;;;;;;;;10290135;28;20226;-68
2024/01/13 05:24:42;;;;;;;5.60;3.93;;;;;;;;;;10289395;28;20775;-69
2024/01/13 05:29:42;;;;;;;6.07;4.03;;;;;;;;;;10288780;28;20213;-69
2024/01/13 05:34:42;;;;;;;5.50;4.00;;;;;;;;;;10289312;28;20740;-69
2024/01/13 05:39:43;;;;;;;5.33;4.30;;;;;;;;;;10289115;28;20219;-69
2024/01/13 05:44:43;;;;;;;4.80;3.80;;;;;;;;;;10288875;28;20458;-69
2024/01/13 05:49:43;;;;;;;5.97;4.10;;;;;;;;;;10288584;28;20310;-68
2024/01/13 05:54:43;;;;;;;7.93;4.27;;;;;;;;;;10289279;28;20209;-69
2024/01/13 05:59:44;;;;;;;6.97;4.50;;;;;;;;;;10288981;28;20665;-68
2024/01/13 06:04:46;;;;;;;8.10;4.57;;;;;;;;;;10288883;28;20215;-69
2024/01/13 06:09:46;;;;;;;7.13;5.27;;;;;;;;;;10368053;28;20213;-69
2024/01/13 06:14:47;;;;;;;6.47;4.80;;;;;;;;;;10363158;28;20227;-69
2024/01/13 06:19:47;;;;;;;11.37;5.37;;;;;;;;;;10359988;28;20621;-69
2024/01/13 06:24:47;;;;;;;6.80;5.00;;;;;;;;;;10359724;28;20205;-68
2024/01/13 06:29:48;;;;;;;8.27;5.50;;;;;;;;;;10359454;28;20212;-69
2024/01/13 06:34:48;;;;;;;7.57;4.90;;;;;;;;;;10365937;28;20718;-69
2024/01/13 06:39:48;;;;;;;6.10;4.87;;;;;;;;;;10367784;28;20185;-69
2024/01/13 06:44:49;;;;;;;6.90;5.23;;;;;;;;;;10364738;28;20766;-69
2024/01/13 06:49:49;;;;;;;8.60;5.80;;;;;;;;;;10368005;28;20217;-69
2024/01/13 06:54:49;;;;;;;6.67;5.13;;;;;;;;;;10367393;28;20300;-69
2024/01/13 06:59:50;;;;;;;6.83;4.40;;;;;;;;;;10361179;28;20724;-69
2024/01/13 07:04:50;;;;;;;10.50;6.80;;;;;;;;;;10364245;28;21056;-68
2024/01/13 07:09:52;;;;;;;4.63;3.80;;;;;;;;;;10366655;28;20224;-69
2024/01/13 07:14:52;;;;;;;3.63;2.93;;;;;;;;;;10364185;28;20221;-69
2024/01/13 07:19:53;;;;;;;4.37;3.70;;;;;;;;;;10361285;28;20190;-69
2024/01/13 07:24:54;;;;;;;4.60;3.37;;;;;;;;;;10356770;28;20213;-69
2024/01/13 07:29:55;;;;;;;5.23;3.80;;;;;;;;;;10356096;28;20217;-69
2024/01/13 07:34:55;;;;;;;8.00;4.40;;;;;;;;;;10355919;28;20224;-69
2024/01/13 07:39:55;;;;;;;6.17;4.37;;;;;;;;;;10361039;28;20201;-69
2024/01/13 07:44:55;;;;;;;5.90;4.30;;;;;;;;;;10366889;28;20262;-69
2024/01/13 07:49:55;;;;;;;6.47;4.00;;;;;;;;;;10368098;28;20213;-69
2024/01/13 07:54:55;;;;;;;4.77;3.53;;;;;;;;;;10364833;28;20205;-68
2024/01/13 07:59:56;;;;;;;5.97;3.90;;;;;;;;;;10368761;28;20252;-69
2024/01/13 08:04:56;;;;;;;5.87;3.90;;;;;;;;;;10354844;28;21052;-69
2024/01/13 08:09:56;;;;;;;5.53;4.43;;;;;;;;;;10360985;28;20209;-68
2024/01/13 08:14:56;;;;;;;7.40;4.53;;;;;;;;;;10365793;28;20205;-69
2024/01/13 08:19:57;;;;;;;5.20;4.37;;;;;;;;;;10367904;28;20275;-68
2024/01/13 08:24:57;;;;;;;7.53;4.93;;;;;;;;;;10371085;28;20970;-69
2024/01/13 08:29:57;;;;;;;6.90;4.67;;;;;;;;;;10370208;28;20221;-68
2024/01/13 08:34:57;;;;;;;7.03;5.30;;;;;;;;;;10369925;28;20209;-68
2024/01/13 08:39:58;;;;;;;7.13;5.13;;;;;;;;;;10364995;28;20692;-68
2024/01/13 08:44:58;;;;;;;8.37;4.87;;;;;;;;;;10370280;28;20228;-68
2024/01/13 08:49:58;;;;;;;6.60;4.40;;;;;;;;;;10366396;28;20487;-68
2024/01/13 08:54:58;;;;;;;5.70;4.47;;;;;;;;;;10366787;28;20209;-68
2024/01/13 08:59:58;;;;;;;4.33;3.80;;;;;;;;;;10362833;28;20197;-68
2024/01/13 09:04:59;;;;;;;7.50;5.97;;;;;;;;;;10365467;28;20879;-68
2024/01/13 09:09:59;;;;;;;6.87;4.97;;;;;;;;;;10363583;28;20221;-68
2024/01/13 09:14:59;;;;;;;7.50;5.63;;;;;;;;;;10366027;28;20213;-68
2024/01/13 09:19:59;;;;;;;7.23;5.30;;;;;;;;;;10367887;28;20202;-69
2024/01/13 09:24:59;;;;;;;7.73;5.70;;;;;;;;;;10362933;28;20225;-68
2024/01/13 09:30:00;;;;;;;6.77;5.27;;;;;;;;;;10357272;28;20224;-68
2024/01/13 09:35:00;;;;;;;7.67;5.63;;;;;;;;;;10361287;28;20474;-68
2024/01/13 09:40:00;;;;;;;6.93;5.13;;;;;;;;;;10369840;28;20192;-68
2024/01/13 09:45:01;;;;;;;8.00;5.67;;;;;;;;;;10358099;28;20209;-68
2024/01/13 09:50:02;;;;;;;8.33;5.83;;;;;;;;;;10369093;28;20527;-68
2024/01/13 09:55:03;;;;;;;6.53;4.73;;;;;;;;;;10365817;28;20570;-68
2024/01/13 10:00:04;;;;;;;9.00;6.17;;;;;;;;;;10368641;28;20189;-68
2024/01/13 10:05:04;;;;;;;6.10;4.90;;;;;;;;;;10368637;28;20232;-68
2024/01/13 10:10:06;;;;;;;6.33;5.23;;;;;;;;;;10368493;28;20213;-68
2024/01/13 10:15:15;;;;;;;6.73;5.20;;;;;;;;;;10358393;28;20209;-68
2024/01/13 10:20:15;;;;;;;6.97;5.27;;;;;;;;;;10366385;28;20652;-68
2024/01/13 10:25:15;;;;;;;8.83;6.07;;;;;;;;;;10368264;28;20284;-68
2024/01/13 10:30:16;;;;;;;7.50;5.40;;;;;;;;;;10365335;28;20308;-68
2024/01/13 10:35:17;;;;;;;8.60;5.80;;;;;;;;;;10367850;28;20201;-68
2024/01/13 10:40:17;;;;;;;7.83;5.93;;;;;;;;;;10367905;28;20260;-68
2024/01/13 10:45:21;;;;;;;8.57;5.17;;;;;;;;;;10367847;28;20209;-68
2024/01/13 10:50:21;;;;;;;8.97;5.63;;;;;;;;;;10364708;28;20716;-68
2024/01/13 10:55:22;;;;;;;7.60;5.77;;;;;;;;;;10367825;28;20213;-68
2024/01/13 11:00:23;;;;;;;9.57;5.93;;;;;;;;;;10367275;28;20201;-68
2024/01/13 11:05:23;;;;;;;8.33;5.13;;;;;;;;;;10367285;28;20583;-68
2024/01/13 11:10:25;;;;;;;8.33;5.37;;;;;;;;;;10364339;28;20217;-68
2024/01/13 11:15:29;;;;;;;7.03;4.43;;;;;;;;;;10367288;28;20216;-68
2024/01/13 11:20:29;;;;;;;7.10;5.20;;;;;;;;;;10366240;28;20593;-68
2024/01/13 11:25:29;;;;;;;5.87;4.60;;;;;;;;;;10369118;28;20229;-68
2024/01/13 11:30:30;;;;;;;6.87;5.37;;;;;;;;;;10372070;28;20573;-68
2024/01/13 11:35:30;;;;;;;6.73;5.03;;;;;;;;;;10374276;28;20221;-68
2024/01/13 11:40:32;;;;;;;7.93;5.57;;;;;;;;;;10374485;28;20192;-68
2024/01/13 11:45:33;;;;;;;9.13;5.40;;;;;;;;;;10374304;28;20264;-68
2024/01/13 11:50:36;;;;;;;7.77;5.03;;;;;;;;;;10370830;28;20277;-68
2024/01/13 11:55:36;;;;;;;7.20;5.17;;;;;;;;;;10374093;28;20268;-68
2024/01/13 12:00:36;;;;;;;10.53;6.10;;;;;;;;;;10373143;28;20271;-68
2024/01/13 12:05:36;;;;;;;8.97;5.50;;;;;;;;;;10370439;28;20229;-68
2024/01/13 12:10:49;;;;;;;8.70;5.90;;;;;;;;;;10373107;28;20605;-68
2024/01/13 12:15:49;;;;;;;8.07;5.47;;;;;;;;;;10372950;28;20213;-68
2024/01/13 12:20:50;;;;;;;7.47;5.13;;;;;;;;;;10372260;28;20197;-68
2024/01/13 12:25:51;;;;;;;10.37;6.50;;;;;;;;;;10369596;28;20217;-68
2024/01/13 12:30:54;;;;;;;8.70;5.93;;;;;;;;;;10373249;28;20260;-68
2024/01/13 12:35:58;;;;;;;10.40;6.73;;;;;;;;;;10371970;28;20205;-68
2024/01/13 12:40:59;;;;;;;8.77;6.17;;;;;;;;;;10372068;28;20201;-69
2024/01/13 12:45:59;;;;;;;12.83;6.80;;;;;;;;;;10368789;28;20703;-68
2024/01/13 12:51:10;;;;;;;10.07;6.10;;;;;;;;;;10371593;28;20582;-68
2024/01/13 12:56:11;;;;;;;9.87;6.03;;;;;;;;;;10368727;28;20632;-69
2024/01/13 13:01:11;;;;;;;10.40;6.43;;;;;;;;;;10370839;28;20205;-68
2024/01/13 13:06:11;;;;;;;10.07;6.87;;;;;;;;;;10367850;28;20315;-68
2024/01/13 13:11:14;;;;;;;11.38;7.22;;;;;;;;;;10369316;28;20235;-68
2024/01/13 13:16:15;;;;;;;10.87;7.33;;;;;;;;;;10370569;28;20201;-68
2024/01/13 13:21:15;;;;;;;11.33;7.83;;;;;;;;;;10367344;28;20194;-68
2024/01/13 13:26:15;;;;;;;14.27;8.30;;;;;;;;;;10370117;28;20217;-68
2024/01/13 13:31:16;;;;;;;12.83;8.23;;;;;;;;;;10369836;28;20272;-69
2024/01/13 13:36:17;;;;;;;18.20;11.47;;;;;;;;;;10369784;28;20292;-68
2024/01/13 13:41:17;;;;;;;17.27;10.90;;;;;;;;;;10366724;28;20673;-69
2024/01/13 13:46:17;;;;;;;14.57;9.53;;;;;;;;;;10368982;28;20602;-68
2024/01/13 13:51:17;;;;;;;14.30;10.57;;;;;;;;;;10367769;28;20260;-69
2024/01/13 13:56:18;;;;;;;12.87;7.47;;;;;;;;;;10368800;28;20236;-68
2024/01/13 14:01:18;;;;;;;14.87;10.40;;;;;;;;;;10369188;28;20228;-68
2024/01/13 14:06:18;;;;;;;16.00;10.67;;;;;;;;;;10368391;28;20471;-68
2024/01/13 14:11:18;;;;;;;11.80;7.50;;;;;;;;;;10365621;28;20221;-68
2024/01/13 14:16:20;;;;;;;10.50;7.27;;;;;;;;;;10368603;28;20247;-67
2024/01/13 14:21:20;;;;;;;17.27;10.90;;;;;;;;;;10368114;28;20204;-68
2024/01/13 14:26:20;;;;;;;15.67;8.27;;;;;;;;;;10366705;28;20223;-68
2024/01/13 14:31:20;;;;;;;19.23;10.77;;;;;;;;;;10365321;28;20483;-68
2024/01/13 14:36:21;;;;;;;15.60;9.60;;;;;;;;;;10369609;28;20296;-68
2024/01/13 14:41:21;;;;;;;19.10;9.13;;;;;;;;;;10367814;28;20208;-68
2024/01/13 14:46:21;;;;;;;17.60;10.93;;;;;;;;;;10367604;28;20476;-68
2024/01/13 14:51:22;;;;;;;17.63;11.37;;;;;;;;;;10364877;28;20227;-68
2024/01/13 14:56:22;;;;;;;16.23;10.33;;;;;;;;;;10367337;28;20209;-68
2024/01/13 15:01:22;;;;;;;20.97;11.50;;;;;;;;;;10373009;28;20192;-68
2024/01/13 15:06:22;;;;;;;15.30;10.57;;;;;;;;;;10375347;28;20814;-68
2024/01/13 15:11:23;;;;;;;18.90;10.60;;;;;;;;;;10372593;28;20308;-68
2024/01/13 15:16:23;;;;;;;19.07;10.73;;;;;;;;;;10375381;28;20228;-68
2024/01/13 15:21:24;;;;;;;18.07;9.70;;;;;;;;;;10375135;28;20185;-68
2024/01/13 15:26:24;;;;;;;16.90;9.40;;;;;;;;;;10372175;28;20220;-68
2024/01/13 15:31:24;;;;;;;18.07;12.70;;;;;;;;;;10374852;28;20384;-68
2024/01/13 15:36:24;;;;;;;17.10;10.20;;;;;;;;;;10374469;28;20355;-68
2024/01/13 15:41:25;;;;;;;16.87;9.37;;;;;;;;;;10374314;28;20225;-68
2024/01/13 15:46:25;;;;;;;15.67;10.03;;;;;;;;;;10371447;28;20691;-68
2024/01/13 15:51:25;;;;;;;19.20;13.07;;;;;;;;;;10373785;28;20245;-68
2024/01/13 15:56:25;;;;;;;16.73;10.87;;;;;;;;;;10373860;28;20218;-68
2024/01/13 16:01:26;;;;;;;17.33;10.77;;;;;;;;;;10373408;28;20189;-67
2024/01/13 16:06:26;;;;;;;18.87;12.90;;;;;;;;;;10370422;28;20264;-68
2024/01/13 16:11:26;;;;;;;16.75;10.38;;;;;;;;;;10371946;28;20769;-68
2024/01/13 16:16:27;;;;;;;17.93;10.93;;;;;;;;;;10372932;28;20579;-68
2024/01/13 16:21:28;;;;;;;17.87;11.93;;;;;;;;;;10373014;28;20204;-68
2024/01/13 16:26:28;;;;;;;18.50;11.10;;;;;;;;;;10369292;28;20221;-68
2024/01/13 16:31:28;;;;;;;16.17;10.63;;;;;;;;;;10372620;28;20791;-67
2024/01/13 16:36:29;;;;;;;18.97;11.57;;;;;;;;;;10371796;28;20738;-69
2024/01/13 16:41:29;;;;;;;17.97;12.37;;;;;;;;;;10372233;28;20216;-68
2024/01/13 16:46:30;;;;;;;20.10;10.47;;;;;;;;;;10367497;28;20562;-68
2024/01/13 16:51:30;;;;;;;15.87;10.77;;;;;;;;;;10371525;28;20213;-69
2024/01/13 16:56:30;;;;;;;16.80;9.30;;;;;;;;;;10371577;28;20267;-68
2024/01/13 17:01:31;;;;;;;15.37;9.10;;;;;;;;;;10368095;28;20193;-68
2024/01/13 17:06:31;;;;;;;19.20;10.10;;;;;;;;;;10371139;28;20692;-68
2024/01/13 17:11:32;;;;;;;16.10;8.67;;;;;;;;;;10370799;28;20232;-67
2024/01/13 17:16:32;;;;;;;17.47;11.10;;;;;;;;;;10370780;28;20267;-68
2024/01/13 17:21:32;;;;;;;18.27;11.70;;;;;;;;;;10367866;28;20244;-68
2024/01/13 17:26:32;;;;;;;15.33;10.30;;;;;;;;;;10370309;28;20585;-68
2024/01/13 17:31:32;;;;;;;19.30;12.10;;;;;;;;;;10370079;28;20216;-68
2024/01/13 17:36:33;;;;;;;15.13;7.87;;;;;;;;;;10369811;28;20215;-68
2024/01/13 17:41:33;;;;;;;17.57;10.87;;;;;;;;;;10366881;28;20194;-68
2024/01/13 17:46:34;;;;;;;16.27;8.03;;;;;;;;;;10369450;28;20217;-68
2024/01/13 17:51:34;;;;;;;20.47;11.60;;;;;;;;;;10369356;28;20259;-68
2024/01/13 17:56:35;;;;;;;18.10;12.30;;;;;;;;;;10369017;28;20637;-68
2024/01/13 18:01:36;;;;;;;24.53;14.53;;;;;;;;;;10366070;28;20652;-68
2024/01/13 18:06:36;;;;;;;37.40;19.37;;;;;;;;;;10368498;28;20236;-68
2024/01/13 18:11:37;;;;;;;22.03;14.27;;;;;;;;;;10368455;28;20579;-68
2024/01/13 18:16:37;;;;;;;24.93;12.97;;;;;;;;;;10368355;28;20205;-68
2024/01/13 18:21:37;;;;;;;23.63;14.10;;;;;;;;;;10365281;28;20212;-68
2024/01/13 18:26:38;;;;;;;17.90;10.67;;;;;;;;;;10367997;28;20298;-68
2024/01/13 18:31:41;;;;;;;20.63;12.47;;;;;;;;;;10367913;28;20205;-68
2024/01/13 18:36:41;;;;;;;22.47;15.17;;;;;;;;;;10361903;28;20721;-68
2024/01/13 18:41:42;;;;;;;21.30;12.23;;;;;;;;;;10367687;28;20202;-68
2024/01/13 18:46:42;;;;;;;18.87;10.23;;;;;;;;;;10367661;28;20213;-68
2024/01/13 18:51:42;;;;;;;19.47;13.07;;;;;;;;;;10367852;28;20221;-68
2024/01/13 18:56:43;;;;;;;19.97;10.70;;;;;;;;;;10364590;28;20589;-69
2024/01/13 19:01:44;;;;;;;20.37;12.43;;;;;;;;;;10367871;28;20193;-68
2024/01/13 19:06:44;;;;;;;15.80;11.07;;;;;;;;;;10366637;28;20240;-69
2024/01/13 19:11:44;;;;;;;17.27;11.60;;;;;;;;;;10367368;28;20217;-69
2024/01/13 19:16:45;;;;;;;18.60;11.70;;;;;;;;;;10363904;28;20217;-67
2024/01/13 19:21:47;;;;;;;18.17;12.52;;;;;;;;;;10366621;28;20436;-68
2024/01/13 19:26:47;;;;;;;13.70;8.83;;;;;;;;;;10366868;28;20225;-67
2024/01/13 19:31:47;;;;;;;15.37;9.80;;;;;;;;;;10366102;28;20205;-67
2024/01/13 19:36:49;;;;;;;16.93;10.27;;;;;;;;;;10363647;28;20209;-67
2024/01/13 19:41:49;;;;;;;19.67;11.43;;;;;;;;;;10366210;28;20703;-69
2024/01/13 19:46:49;;;;;;;14.47;9.83;;;;;;;;;;10368846;28;20205;-69
2024/01/13 19:51:50;;;;;;;14.77;9.13;;;;;;;;;;10372203;28;20223;-68
2024/01/13 19:56:50;;;;;;;18.03;11.83;;;;;;;;;;10371711;28;20259;-69
2024/01/13 20:01:50;;;;;;;15.50;10.77;;;;;;;;;;10372762;28;20288;-67
2024/01/13 20:06:50;;;;;;;17.43;10.43;;;;;;;;;;10372382;28;20294;-70
2024/01/13 20:11:50;;;;;;;18.43;11.17;;;;;;;;;;10370118;28;20236;-68
2024/01/13 20:16:51;;;;;;;16.40;10.60;;;;;;;;;;10372576;28;20452;-68
2024/01/13 20:21:51;;;;;;;19.17;11.23;;;;;;;;;;10372533;28;20239;-70
2024/01/13 20:26:51;;;;;;;16.80;10.97;;;;;;;;;;10373724;28;20815;-67
2024/01/13 20:31:52;;;;;;;14.73;10.70;;;;;;;;;;10369800;28;20218;-69
2024/01/13 20:36:52;;;;;;;16.77;10.80;;;;;;;;;;10372039;28;20212;-69
2024/01/13 20:41:52;;;;;;;15.20;9.40;;;;;;;;;;10371561;28;20204;-69
2024/01/13 20:46:53;;;;;;;13.80;9.60;;;;;;;;;;10371570;28;20213;-69
2024/01/13 20:51:53;;;;;;;17.83;11.57;;;;;;;;;;10367975;28;20224;-67
2024/01/13 20:56:53;;;;;;;18.48;11.82;;;;;;;;;;10371106;28;20198;-70
2024/01/13 21:01:54;;;;;;;20.40;11.73;;;;;;;;;;10371192;28;20679;-69
2024/01/13 21:06:55;;;;;;;15.70;10.47;;;;;;;;;;10370718;28;20243;-68
2024/01/13 21:11:56;;;;;;;17.83;10.63;;;;;;;;;;10367873;28;20232;-69
2024/01/13 21:16:56;;;;;;;15.27;9.17;;;;;;;;;;10370456;28;20219;-69
2024/01/13 21:21:56;;;;;;;14.87;10.70;;;;;;;;;;10370653;28;20732;-69
2024/01/13 21:26:56;;;;;;;15.27;9.83;;;;;;;;;;10367762;28;20590;-68
2024/01/13 21:31:57;;;;;;;11.47;7.10;;;;;;;;;;10369533;28;20216;-68
2024/01/13 21:36:58;;;;;;;18.33;11.70;;;;;;;;;;10369673;28;20213;-68
2024/01/13 21:41:58;;;;;;;16.53;10.40;;;;;;;;;;10369849;28;20201;-67
2024/01/13 21:46:58;;;;;;;16.27;10.20;;;;;;;;;;10366378;28;20256;-68
2024/01/13 21:51:59;;;;;;;20.33;12.70;;;;;;;;;;10369223;28;20226;-68
2024/01/13 21:57:05;;;;;;;16.07;11.03;;;;;;;;;;10369178;28;20217;-68
2024/01/13 22:02:08;;;;;;;17.73;11.03;;;;;;;;;;10368811;28;20204;-68
2024/01/13 22:07:10;;;;;;;17.07;10.57;;;;;;;;;;10365038;28;20280;-68
2024/01/13 22:12:12;;;;;;;15.40;9.07;;;;;;;;;;10365485;28;20193;-68
2024/01/13 22:17:12;;;;;;;17.20;11.07;;;;;;;;;;10368675;28;20209;-67
2024/01/13 22:22:12;;;;;;;13.10;9.03;;;;;;;;;;10368446;28;20181;-70
2024/01/13 22:27:12;;;;;;;14.30;8.93;;;;;;;;;;10365152;28;20228;-67
2024/01/13 22:32:13;;;;;;;12.33;8.73;;;;;;;;;;10368215;28;20189;-67
2024/01/13 22:37:13;;;;;;;13.27;9.60;;;;;;;;;;10368054;28;20209;-68
2024/01/13 22:42:13;;;;;;;12.10;8.00;;;;;;;;;;10367998;28;20727;-68
2024/01/13 22:47:13;;;;;;;12.27;8.47;;;;;;;;;;10364794;28;20295;-67
2024/01/13 22:52:13;;;;;;;14.03;8.00;;;;;;;;;;10367972;28;20185;-67
2024/01/13 22:57:14;;;;;;;13.23;8.33;;;;;;;;;;10367876;28;20205;-67
2024/01/13 23:02:14;;;;;;;11.27;7.43;;;;;;;;;;10364752;28;20185;-67
2024/01/13 23:07:14;;;;;;;11.40;7.57;;;;;;;;;;10367324;28;20247;-68
2024/01/13 23:12:16;;;;;;;10.07;7.63;;;;;;;;;;10367264;28;20263;-67
2024/01/13 23:17:16;;;;;;;9.17;6.83;;;;;;;;;;10367326;28;20257;-67
2024/01/13 23:22:16;;;;;;;7.47;5.87;;;;;;;;;;10369649;28;20671;-70
2024/01/13 23:27:16;;;;;;;9.13;6.63;;;;;;;;;;10374964;28;20292;-69
2024/01/13 23:32:17;;;;;;;11.80;6.83;;;;;;;;;;10374912;28;20189;-68
2024/01/13 23:37:17;;;;;;;10.30;7.20;;;;;;;;;;10374372;28;20201;-69
2024/01/13 23:42:18;;;;;;;10.10;7.63;;;;;;;;;;10371793;28;20280;-69
2024/01/13 23:47:18;;;;;;;7.87;5.70;;;;;;;;;;10373947;28;20209;-69
2024/01/13 23:52:18;;;;;;;9.43;5.87;;;;;;;;;;10374137;28;20209;-69
2024/01/13 23:57:18;;;;;;;11.03;7.03;;;;;;;;;;10373618;28;20513;-69
